sensor_id;sensor_type;location;lat;lon;timestamp;P1;durP1;ratioP1;P2;durP2;ratioP2
16828;SDS011;8531;48.078;11.968;2022-07-05T00:00:45;1.80;;;1.13;;
16828;SDS011;8531;48.078;11.968;2022-07-05T00:03:10;1.05;;;0.82;;
16828;SDS011;8531;48.078;11.968;2022-07-05T00:05:36;0.85;;;0.70;;
16828;SDS011;8531;48.078;11.968;2022-07-05T00:08:03;1.50;;;1.02;;
16828;SDS011;8531;48.078;11.968;2022-07-05T00:10:29;1.48;;;0.80;;
16828;SDS011;8531;48.078;11.968;2022-07-05T00:12:56;2.65;;;1.30;;
16828;SDS011;8531;48.078;11.968;2022-07-05T00:15:21;2.00;;;1.05;;
16828;SDS011;8531;48.078;11.968;2022-07-05T00:17:47;4.05;;;2.22;;
16828;SDS011;8531;48.078;11.968;2022-07-05T00:20:13;2.38;;;0.90;;
16828;SDS011;8531;48.078;11.968;2022-07-05T00:22:39;1.20;;;0.80;;
16828;SDS011;8531;48.078;11.968;2022-07-05T00:25:05;0.80;;;0.80;;
16828;SDS011;8531;48.078;11.968;2022-07-05T00:27:31;3.67;;;1.00;;
16828;SDS011;8531;48.078;11.968;2022-07-05T00:29:56;1.52;;;0.80;;
16828;SDS011;8531;48.078;11.968;2022-07-05T00:32:22;1.67;;;1.58;;
16828;SDS011;8531;48.078;11.968;2022-07-05T00:34:48;1.45;;;1.00;;
16828;SDS011;8531;48.078;11.968;2022-07-05T00:37:13;1.70;;;1.20;;
16828;SDS011;8531;48.078;11.968;2022-07-05T00:39:39;2.65;;;1.33;;
16828;SDS011;8531;48.078;11.968;2022-07-05T00:42:05;2.40;;;1.33;;
16828;SDS011;8531;48.078;11.968;2022-07-05T00:44:32;1.65;;;1.10;;
16828;SDS011;8531;48.078;11.968;2022-07-05T00:47:00;1.38;;;1.27;;
16828;SDS011;8531;48.078;11.968;2022-07-05T00:49:27;2.00;;;1.00;;
16828;SDS011;8531;48.078;11.968;2022-07-05T00:51:53;1.60;;;1.20;;
16828;SDS011;8531;48.078;11.968;2022-07-05T00:54:19;1.38;;;1.15;;
16828;SDS011;8531;48.078;11.968;2022-07-05T00:56:45;2.30;;;1.65;;
16828;SDS011;8531;48.078;11.968;2022-07-05T00:59:10;2.03;;;1.42;;
16828;SDS011;8531;48.078;11.968;2022-07-05T01:01:36;2.45;;;1.40;;
16828;SDS011;8531;48.078;11.968;2022-07-05T01:04:02;1.50;;;1.40;;
16828;SDS011;8531;48.078;11.968;2022-07-05T01:06:27;1.80;;;1.13;;
16828;SDS011;8531;48.078;11.968;2022-07-05T01:08:53;1.77;;;1.50;;
16828;SDS011;8531;48.078;11.968;2022-07-05T01:11:18;2.95;;;1.48;;
16828;SDS011;8531;48.078;11.968;2022-07-05T01:13:44;2.45;;;1.42;;
16828;SDS011;8531;48.078;11.968;2022-07-05T01:16:11;1.60;;;1.50;;
16828;SDS011;8531;48.078;11.968;2022-07-05T01:18:38;1.65;;;1.40;;
16828;SDS011;8531;48.078;11.968;2022-07-05T01:21:03;1.63;;;1.40;;
16828;SDS011;8531;48.078;11.968;2022-07-05T01:23:30;2.55;;;1.42;;
16828;SDS011;8531;48.078;11.968;2022-07-05T01:25:57;3.95;;;1.80;;
16828;SDS011;8531;48.078;11.968;2022-07-05T01:28:24;2.95;;;1.63;;
16828;SDS011;8531;48.078;11.968;2022-07-05T01:30:50;2.78;;;1.77;;
16828;SDS011;8531;48.078;11.968;2022-07-05T01:33:17;2.15;;;1.95;;
16828;SDS011;8531;48.078;11.968;2022-07-05T01:35:42;1.70;;;1.50;;
16828;SDS011;8531;48.078;11.968;2022-07-05T01:38:10;2.10;;;1.75;;
16828;SDS011;8531;48.078;11.968;2022-07-05T01:40:36;1.80;;;1.60;;
16828;SDS011;8531;48.078;11.968;2022-07-05T01:43:03;2.33;;;1.42;;
16828;SDS011;8531;48.078;11.968;2022-07-05T01:45:29;2.28;;;1.95;;
16828;SDS011;8531;48.078;11.968;2022-07-05T01:50:41;1.80;;;1.50;;
16828;SDS011;8531;48.078;11.968;2022-07-05T01:53:11;2.35;;;1.50;;
16828;SDS011;8531;48.078;11.968;2022-07-05T01:55:40;1.60;;;1.50;;
16828;SDS011;8531;48.078;11.968;2022-07-05T01:58:05;2.38;;;1.50;;
16828;SDS011;8531;48.078;11.968;2022-07-05T02:00:41;2.03;;;1.65;;
16828;SDS011;8531;48.078;11.968;2022-07-05T02:03:10;2.22;;;1.35;;
16828;SDS011;8531;48.078;11.968;2022-07-05T02:05:36;2.42;;;1.40;;
16828;SDS011;8531;48.078;11.968;2022-07-05T02:08:02;1.83;;;1.50;;
16828;SDS011;8531;48.078;11.968;2022-07-05T02:10:28;1.45;;;1.20;;
16828;SDS011;8531;48.078;11.968;2022-07-05T02:12:53;2.15;;;1.40;;
16828;SDS011;8531;48.078;11.968;2022-07-05T02:15:19;2.17;;;1.42;;
16828;SDS011;8531;48.078;11.968;2022-07-05T02:17:44;2.47;;;1.30;;
16828;SDS011;8531;48.078;11.968;2022-07-05T02:20:10;2.30;;;0.90;;
16828;SDS011;8531;48.078;11.968;2022-07-05T02:22:36;1.83;;;1.58;;
16828;SDS011;8531;48.078;11.968;2022-07-05T02:25:02;1.95;;;1.42;;
16828;SDS011;8531;48.078;11.968;2022-07-05T02:27:27;2.13;;;1.17;;
16828;SDS011;8531;48.078;11.968;2022-07-05T02:29:53;1.88;;;1.38;;
16828;SDS011;8531;48.078;11.968;2022-07-05T02:32:19;2.20;;;1.40;;
16828;SDS011;8531;48.078;11.968;2022-07-05T02:34:44;1.98;;;1.50;;
16828;SDS011;8531;48.078;11.968;2022-07-05T02:37:10;1.42;;;1.30;;
16828;SDS011;8531;48.078;11.968;2022-07-05T02:39:35;2.35;;;1.50;;
16828;SDS011;8531;48.078;11.968;2022-07-05T02:42:01;1.50;;;1.40;;
16828;SDS011;8531;48.078;11.968;2022-07-05T02:44:27;1.52;;;1.17;;
16828;SDS011;8531;48.078;11.968;2022-07-05T02:46:52;1.35;;;1.20;;
16828;SDS011;8531;48.078;11.968;2022-07-05T02:49:18;2.13;;;1.00;;
16828;SDS011;8531;48.078;11.968;2022-07-05T02:51:44;1.20;;;0.95;;
16828;SDS011;8531;48.078;11.968;2022-07-05T02:54:09;2.55;;;1.10;;
16828;SDS011;8531;48.078;11.968;2022-07-05T02:56:35;1.13;;;1.10;;
16828;SDS011;8531;48.078;11.968;2022-07-05T02:59:00;1.27;;;1.02;;
16828;SDS011;8531;48.078;11.968;2022-07-05T03:01:26;1.23;;;1.10;;
16828;SDS011;8531;48.078;11.968;2022-07-05T03:03:52;1.98;;;1.15;;
16828;SDS011;8531;48.078;11.968;2022-07-05T03:06:17;1.00;;;1.00;;
16828;SDS011;8531;48.078;11.968;2022-07-05T03:08:43;2.03;;;0.90;;
16828;SDS011;8531;48.078;11.968;2022-07-05T03:11:09;1.25;;;1.02;;
16828;SDS011;8531;48.078;11.968;2022-07-05T03:13:34;2.22;;;1.33;;
16828;SDS011;8531;48.078;11.968;2022-07-05T03:16:00;1.02;;;1.00;;
16828;SDS011;8531;48.078;11.968;2022-07-05T03:18:26;1.77;;;1.27;;
16828;SDS011;8531;48.078;11.968;2022-07-05T03:20:51;1.30;;;1.20;;
16828;SDS011;8531;48.078;11.968;2022-07-05T03:23:17;1.40;;;1.00;;
16828;SDS011;8531;48.078;11.968;2022-07-05T03:25:43;1.67;;;1.27;;
16828;SDS011;8531;48.078;11.968;2022-07-05T03:28:09;1.30;;;1.17;;
16828;SDS011;8531;48.078;11.968;2022-07-05T03:30:34;1.52;;;1.42;;
16828;SDS011;8531;48.078;11.968;2022-07-05T03:33:00;1.98;;;1.10;;
16828;SDS011;8531;48.078;11.968;2022-07-05T03:35:26;1.45;;;1.35;;
16828;SDS011;8531;48.078;11.968;2022-07-05T03:37:52;1.38;;;1.27;;
16828;SDS011;8531;48.078;11.968;2022-07-05T03:40:18;1.98;;;1.58;;
16828;SDS011;8531;48.078;11.968;2022-07-05T03:42:43;2.83;;;1.05;;
16828;SDS011;8531;48.078;11.968;2022-07-05T03:45:09;5.78;;;1.10;;
16828;SDS011;8531;48.078;11.968;2022-07-05T03:47:35;2.33;;;1.30;;
16828;SDS011;8531;48.078;11.968;2022-07-05T03:50:01;1.98;;;1.25;;
16828;SDS011;8531;48.078;11.968;2022-07-05T03:52:27;1.70;;;1.27;;
16828;SDS011;8531;48.078;11.968;2022-07-05T03:54:53;2.70;;;1.20;;
16828;SDS011;8531;48.078;11.968;2022-07-05T03:57:19;1.45;;;1.20;;
16828;SDS011;8531;48.078;11.968;2022-07-05T03:59:45;1.30;;;1.20;;
16828;SDS011;8531;48.078;11.968;2022-07-05T04:02:11;2.10;;;1.10;;
16828;SDS011;8531;48.078;11.968;2022-07-05T04:04:36;2.97;;;1.13;;
16828;SDS011;8531;48.078;11.968;2022-07-05T04:07:02;2.78;;;1.55;;
16828;SDS011;8531;48.078;11.968;2022-07-05T04:09:28;1.23;;;1.13;;
16828;SDS011;8531;48.078;11.968;2022-07-05T04:11:53;3.35;;;1.20;;
16828;SDS011;8531;48.078;11.968;2022-07-05T04:14:20;2.45;;;1.50;;
16828;SDS011;8531;48.078;11.968;2022-07-05T04:16:46;1.90;;;1.15;;
16828;SDS011;8531;48.078;11.968;2022-07-05T04:19:11;6.90;;;1.30;;
16828;SDS011;8531;48.078;11.968;2022-07-05T04:21:37;8.10;;;1.48;;
16828;SDS011;8531;48.078;11.968;2022-07-05T04:24:03;3.05;;;1.20;;
16828;SDS011;8531;48.078;11.968;2022-07-05T04:26:29;4.07;;;1.13;;
16828;SDS011;8531;48.078;11.968;2022-07-05T04:28:54;1.85;;;0.95;;
16828;SDS011;8531;48.078;11.968;2022-07-05T04:31:20;1.35;;;1.15;;
16828;SDS011;8531;48.078;11.968;2022-07-05T04:33:46;1.73;;;1.50;;
16828;SDS011;8531;48.078;11.968;2022-07-05T04:36:11;3.35;;;0.90;;
16828;SDS011;8531;48.078;11.968;2022-07-05T04:38:37;1.60;;;1.08;;
16828;SDS011;8531;48.078;11.968;2022-07-05T04:41:02;2.60;;;1.20;;
16828;SDS011;8531;48.078;11.968;2022-07-05T04:43:28;2.85;;;1.30;;
16828;SDS011;8531;48.078;11.968;2022-07-05T04:45:54;2.28;;;1.10;;
16828;SDS011;8531;48.078;11.968;2022-07-05T04:48:19;0.90;;;0.90;;
16828;SDS011;8531;48.078;11.968;2022-07-05T04:50:45;2.10;;;1.10;;
16828;SDS011;8531;48.078;11.968;2022-07-05T04:53:11;1.30;;;0.98;;
16828;SDS011;8531;48.078;11.968;2022-07-05T04:55:36;7.20;;;1.23;;
16828;SDS011;8531;48.078;11.968;2022-07-05T04:58:02;2.78;;;1.02;;
16828;SDS011;8531;48.078;11.968;2022-07-05T05:00:27;1.48;;;0.98;;
16828;SDS011;8531;48.078;11.968;2022-07-05T05:02:53;0.93;;;0.80;;
16828;SDS011;8531;48.078;11.968;2022-07-05T05:05:19;3.75;;;1.00;;
16828;SDS011;8531;48.078;11.968;2022-07-05T05:07:45;1.13;;;0.70;;
16828;SDS011;8531;48.078;11.968;2022-07-05T05:10:10;1.10;;;0.82;;
16828;SDS011;8531;48.078;11.968;2022-07-05T05:12:36;1.52;;;0.65;;
16828;SDS011;8531;48.078;11.968;2022-07-05T05:15:02;0.90;;;0.60;;
16828;SDS011;8531;48.078;11.968;2022-07-05T05:17:35;2.78;;;0.88;;
16828;SDS011;8531;48.078;11.968;2022-07-05T05:20:03;2.15;;;0.80;;
16828;SDS011;8531;48.078;11.968;2022-07-05T05:22:30;1.15;;;0.80;;
16828;SDS011;8531;48.078;11.968;2022-07-05T05:24:56;1.30;;;0.60;;
16828;SDS011;8531;48.078;11.968;2022-07-05T05:27:21;1.45;;;0.90;;
16828;SDS011;8531;48.078;11.968;2022-07-05T05:29:47;1.23;;;0.80;;
16828;SDS011;8531;48.078;11.968;2022-07-05T05:32:13;0.70;;;0.70;;
16828;SDS011;8531;48.078;11.968;2022-07-05T05:34:38;2.30;;;0.80;;
16828;SDS011;8531;48.078;11.968;2022-07-05T05:37:04;1.42;;;0.40;;
16828;SDS011;8531;48.078;11.968;2022-07-05T05:39:29;2.47;;;1.63;;
16828;SDS011;8531;48.078;11.968;2022-07-05T05:41:55;0.95;;;0.55;;
16828;SDS011;8531;48.078;11.968;2022-07-05T05:44:20;0.40;;;0.40;;
16828;SDS011;8531;48.078;11.968;2022-07-05T05:46:46;2.28;;;0.75;;
16828;SDS011;8531;48.078;11.968;2022-07-05T05:49:12;0.88;;;0.68;;
16828;SDS011;8531;48.078;11.968;2022-07-05T05:51:37;1.75;;;0.80;;
16828;SDS011;8531;48.078;11.968;2022-07-05T05:54:03;1.27;;;0.70;;
16828;SDS011;8531;48.078;11.968;2022-07-05T05:56:29;1.95;;;0.60;;
16828;SDS011;8531;48.078;11.968;2022-07-05T05:58:54;1.52;;;0.70;;
16828;SDS011;8531;48.078;11.968;2022-07-05T06:01:20;2.60;;;0.95;;
16828;SDS011;8531;48.078;11.968;2022-07-05T06:03:46;1.10;;;0.93;;
16828;SDS011;8531;48.078;11.968;2022-07-05T06:06:11;1.70;;;1.35;;
16828;SDS011;8531;48.078;11.968;2022-07-05T06:08:37;1.60;;;0.88;;
16828;SDS011;8531;48.078;11.968;2022-07-05T06:11:02;1.80;;;0.70;;
16828;SDS011;8531;48.078;11.968;2022-07-05T06:13:31;1.27;;;0.80;;
16828;SDS011;8531;48.078;11.968;2022-07-05T06:15:57;1.70;;;0.82;;
16828;SDS011;8531;48.078;11.968;2022-07-05T06:18:23;2.85;;;1.02;;
16828;SDS011;8531;48.078;11.968;2022-07-05T06:20:48;2.22;;;0.63;;
16828;SDS011;8531;48.078;11.968;2022-07-05T06:23:14;0.70;;;0.60;;
16828;SDS011;8531;48.078;11.968;2022-07-05T06:25:39;6.05;;;1.27;;
16828;SDS011;8531;48.078;11.968;2022-07-05T06:28:06;3.55;;;1.00;;
16828;SDS011;8531;48.078;11.968;2022-07-05T06:30:33;1.33;;;0.90;;
16828;SDS011;8531;48.078;11.968;2022-07-05T06:33:03;1.13;;;1.02;;
16828;SDS011;8531;48.078;11.968;2022-07-05T06:35:29;4.38;;;1.40;;
16828;SDS011;8531;48.078;11.968;2022-07-05T06:37:57;1.90;;;1.35;;
16828;SDS011;8531;48.078;11.968;2022-07-05T06:40:26;1.25;;;0.98;;
16828;SDS011;8531;48.078;11.968;2022-07-05T06:42:54;2.65;;;1.70;;
16828;SDS011;8531;48.078;11.968;2022-07-05T06:45:22;2.58;;;1.30;;
16828;SDS011;8531;48.078;11.968;2022-07-05T06:48:04;4.38;;;1.45;;
16828;SDS011;8531;48.078;11.968;2022-07-05T06:50:32;2.95;;;1.20;;
16828;SDS011;8531;48.078;11.968;2022-07-05T06:53:00;1.30;;;1.17;;
16828;SDS011;8531;48.078;11.968;2022-07-05T06:55:27;2.08;;;1.52;;
16828;SDS011;8531;48.078;11.968;2022-07-05T06:57:56;2.17;;;1.40;;
16828;SDS011;8531;48.078;11.968;2022-07-05T07:00:23;3.17;;;1.38;;
16828;SDS011;8531;48.078;11.968;2022-07-05T07:02:49;3.08;;;1.50;;
16828;SDS011;8531;48.078;11.968;2022-07-05T07:05:15;1.27;;;1.13;;
16828;SDS011;8531;48.078;11.968;2022-07-05T07:07:40;3.25;;;1.52;;
16828;SDS011;8531;48.078;11.968;2022-07-05T07:10:24;2.20;;;1.30;;
16828;SDS011;8531;48.078;11.968;2022-07-05T07:12:50;3.05;;;1.30;;
16828;SDS011;8531;48.078;11.968;2022-07-05T07:15:16;3.42;;;1.60;;
16828;SDS011;8531;48.078;11.968;2022-07-05T07:17:41;3.05;;;1.50;;
16828;SDS011;8531;48.078;11.968;2022-07-05T07:20:07;6.45;;;1.50;;
16828;SDS011;8531;48.078;11.968;2022-07-05T07:22:33;2.67;;;1.60;;
16828;SDS011;8531;48.078;11.968;2022-07-05T07:24:59;2.92;;;1.92;;
16828;SDS011;8531;48.078;11.968;2022-07-05T07:27:25;2.42;;;2.20;;
16828;SDS011;8531;48.078;11.968;2022-07-05T07:29:50;2.15;;;1.95;;
16828;SDS011;8531;48.078;11.968;2022-07-05T07:32:16;3.05;;;1.70;;
16828;SDS011;8531;48.078;11.968;2022-07-05T07:34:43;2.28;;;1.85;;
16828;SDS011;8531;48.078;11.968;2022-07-05T07:37:09;3.53;;;1.80;;
16828;SDS011;8531;48.078;11.968;2022-07-05T07:39:38;2.40;;;1.65;;
16828;SDS011;8531;48.078;11.968;2022-07-05T07:42:04;2.45;;;1.30;;
16828;SDS011;8531;48.078;11.968;2022-07-05T07:44:30;2.28;;;1.70;;
16828;SDS011;8531;48.078;11.968;2022-07-05T07:46:56;2.90;;;1.60;;
16828;SDS011;8531;48.078;11.968;2022-07-05T07:49:22;4.70;;;1.80;;
16828;SDS011;8531;48.078;11.968;2022-07-05T07:51:47;1.90;;;1.80;;
16828;SDS011;8531;48.078;11.968;2022-07-05T07:54:13;2.50;;;1.90;;
16828;SDS011;8531;48.078;11.968;2022-07-05T07:56:39;6.15;;;1.77;;
16828;SDS011;8531;48.078;11.968;2022-07-05T07:59:04;2.30;;;1.90;;
16828;SDS011;8531;48.078;11.968;2022-07-05T08:01:30;2.53;;;1.52;;
16828;SDS011;8531;48.078;11.968;2022-07-05T08:03:56;2.45;;;1.73;;
16828;SDS011;8531;48.078;11.968;2022-07-05T08:06:22;3.45;;;1.90;;
16828;SDS011;8531;48.078;11.968;2022-07-05T08:08:47;3.90;;;1.58;;
16828;SDS011;8531;48.078;11.968;2022-07-05T08:11:13;2.17;;;1.98;;
16828;SDS011;8531;48.078;11.968;2022-07-05T08:13:39;2.63;;;1.75;;
16828;SDS011;8531;48.078;11.968;2022-07-05T08:16:06;3.08;;;1.33;;
16828;SDS011;8531;48.078;11.968;2022-07-05T08:18:32;2.20;;;1.60;;
16828;SDS011;8531;48.078;11.968;2022-07-05T08:21:17;3.20;;;1.70;;
16828;SDS011;8531;48.078;11.968;2022-07-05T08:24:03;3.83;;;1.85;;
16828;SDS011;8531;48.078;11.968;2022-07-05T08:26:33;2.15;;;1.60;;
16828;SDS011;8531;48.078;11.968;2022-07-05T08:28:59;3.30;;;1.58;;
16828;SDS011;8531;48.078;11.968;2022-07-05T08:31:29;3.17;;;1.98;;
16828;SDS011;8531;48.078;11.968;2022-07-05T08:33:57;3.47;;;1.80;;
16828;SDS011;8531;48.078;11.968;2022-07-05T08:36:23;2.10;;;1.90;;
16828;SDS011;8531;48.078;11.968;2022-07-05T08:38:49;2.00;;;1.27;;
16828;SDS011;8531;48.078;11.968;2022-07-05T08:41:17;1.77;;;1.20;;
16828;SDS011;8531;48.078;11.968;2022-07-05T08:43:44;4.22;;;1.85;;
16828;SDS011;8531;48.078;11.968;2022-07-05T08:46:11;2.17;;;1.50;;
16828;SDS011;8531;48.078;11.968;2022-07-05T08:48:38;2.83;;;1.63;;
16828;SDS011;8531;48.078;11.968;2022-07-05T08:51:15;3.78;;;1.88;;
16828;SDS011;8531;48.078;11.968;2022-07-05T08:53:46;3.30;;;1.48;;
16828;SDS011;8531;48.078;11.968;2022-07-05T08:56:13;2.30;;;1.45;;
16828;SDS011;8531;48.078;11.968;2022-07-05T08:58:40;4.68;;;2.25;;
16828;SDS011;8531;48.078;11.968;2022-07-05T09:01:06;3.67;;;1.52;;
16828;SDS011;8531;48.078;11.968;2022-07-05T09:03:37;2.22;;;1.60;;
16828;SDS011;8531;48.078;11.968;2022-07-05T09:06:15;1.98;;;1.23;;
16828;SDS011;8531;48.078;11.968;2022-07-05T09:08:42;1.52;;;1.17;;
16828;SDS011;8531;48.078;11.968;2022-07-05T09:11:10;2.15;;;1.30;;
16828;SDS011;8531;48.078;11.968;2022-07-05T09:13:38;7.03;;;1.30;;
16828;SDS011;8531;48.078;11.968;2022-07-05T09:16:06;1.80;;;1.33;;
16828;SDS011;8531;48.078;11.968;2022-07-05T09:21:12;2.03;;;1.20;;
16828;SDS011;8531;48.078;11.968;2022-07-05T09:23:38;3.33;;;1.10;;
16828;SDS011;8531;48.078;11.968;2022-07-05T09:26:04;1.98;;;1.00;;
16828;SDS011;8531;48.078;11.968;2022-07-05T09:28:30;6.20;;;1.45;;
16828;SDS011;8531;48.078;11.968;2022-07-05T09:30:56;5.18;;;1.20;;
16828;SDS011;8531;48.078;11.968;2022-07-05T09:33:21;2.08;;;1.20;;
16828;SDS011;8531;48.078;11.968;2022-07-05T09:35:54;2.95;;;1.10;;
16828;SDS011;8531;48.078;11.968;2022-07-05T09:38:24;1.98;;;1.30;;
16828;SDS011;8531;48.078;11.968;2022-07-05T09:40:52;2.35;;;0.90;;
16828;SDS011;8531;48.078;11.968;2022-07-05T09:43:26;3.97;;;1.70;;
16828;SDS011;8531;48.078;11.968;2022-07-05T09:48:24;2.20;;;1.10;;
16828;SDS011;8531;48.078;11.968;2022-07-05T09:50:50;1.02;;;0.93;;
16828;SDS011;8531;48.078;11.968;2022-07-05T09:53:19;2.20;;;0.93;;
16828;SDS011;8531;48.078;11.968;2022-07-05T09:55:59;4.00;;;1.00;;
16828;SDS011;8531;48.078;11.968;2022-07-05T09:58:28;1.15;;;0.68;;
16828;SDS011;8531;48.078;11.968;2022-07-05T10:00:54;1.30;;;0.70;;
16828;SDS011;8531;48.078;11.968;2022-07-05T10:03:20;0.82;;;0.50;;
16828;SDS011;8531;48.078;11.968;2022-07-05T10:05:45;1.58;;;0.60;;
16828;SDS011;8531;48.078;11.968;2022-07-05T10:08:11;2.08;;;0.93;;
16828;SDS011;8531;48.078;11.968;2022-07-05T10:10:38;1.10;;;1.00;;
16828;SDS011;8531;48.078;11.968;2022-07-05T10:13:06;2.28;;;0.90;;
16828;SDS011;8531;48.078;11.968;2022-07-05T10:15:32;2.33;;;1.00;;
16828;SDS011;8531;48.078;11.968;2022-07-05T10:18:03;1.45;;;0.60;;
16828;SDS011;8531;48.078;11.968;2022-07-05T10:23:04;1.38;;;0.90;;
16828;SDS011;8531;48.078;11.968;2022-07-05T10:25:31;2.10;;;0.80;;
16828;SDS011;8531;48.078;11.968;2022-07-05T10:27:57;2.20;;;1.10;;
16828;SDS011;8531;48.078;11.968;2022-07-05T10:30:23;2.88;;;1.10;;
16828;SDS011;8531;48.078;11.968;2022-07-05T10:32:50;1.73;;;0.80;;
16828;SDS011;8531;48.078;11.968;2022-07-05T10:35:16;1.85;;;1.00;;
16828;SDS011;8531;48.078;11.968;2022-07-05T10:37:43;3.03;;;0.90;;
16828;SDS011;8531;48.078;11.968;2022-07-05T10:40:09;1.02;;;0.65;;
16828;SDS011;8531;48.078;11.968;2022-07-05T10:42:37;1.33;;;0.80;;
16828;SDS011;8531;48.078;11.968;2022-07-05T10:45:21;1.63;;;1.20;;
16828;SDS011;8531;48.078;11.968;2022-07-05T10:50:56;1.77;;;0.73;;
16828;SDS011;8531;48.078;11.968;2022-07-05T10:58:45;2.47;;;1.15;;
16828;SDS011;8531;48.078;11.968;2022-07-05T11:06:21;3.08;;;1.00;;
16828;SDS011;8531;48.078;11.968;2022-07-05T11:13:57;1.20;;;0.80;;
16828;SDS011;8531;48.078;11.968;2022-07-05T11:16:26;2.58;;;0.75;;
16828;SDS011;8531;48.078;11.968;2022-07-05T11:18:53;0.95;;;0.60;;
16828;SDS011;8531;48.078;11.968;2022-07-05T11:21:36;1.23;;;1.00;;
16828;SDS011;8531;48.078;11.968;2022-07-05T11:24:20;1.50;;;0.80;;
16828;SDS011;8531;48.078;11.968;2022-07-05T11:26:48;2.60;;;0.80;;
16828;SDS011;8531;48.078;11.968;2022-07-05T11:32:06;1.40;;;0.90;;
16828;SDS011;8531;48.078;11.968;2022-07-05T11:34:34;3.60;;;1.70;;
16828;SDS011;8531;48.078;11.968;2022-07-05T11:39:47;2.35;;;1.50;;
16828;SDS011;8531;48.078;11.968;2022-07-05T11:42:32;0.95;;;0.90;;
16828;SDS011;8531;48.078;11.968;2022-07-05T11:44:59;0.93;;;0.68;;
16828;SDS011;8531;48.078;11.968;2022-07-05T11:47:26;1.55;;;1.05;;
16828;SDS011;8531;48.078;11.968;2022-07-05T11:49:56;1.15;;;0.98;;
16828;SDS011;8531;48.078;11.968;2022-07-05T11:52:27;1.40;;;0.90;;
16828;SDS011;8531;48.078;11.968;2022-07-05T11:54:55;0.70;;;0.70;;
16828;SDS011;8531;48.078;11.968;2022-07-05T11:57:21;2.25;;;0.90;;
16828;SDS011;8531;48.078;11.968;2022-07-05T11:59:48;2.35;;;0.85;;
16828;SDS011;8531;48.078;11.968;2022-07-05T12:02:14;1.75;;;0.85;;
16828;SDS011;8531;48.078;11.968;2022-07-05T12:04:40;2.58;;;1.02;;
16828;SDS011;8531;48.078;11.968;2022-07-05T12:07:11;2.72;;;0.88;;
16828;SDS011;8531;48.078;11.968;2022-07-05T12:09:37;1.20;;;0.90;;
16828;SDS011;8531;48.078;11.968;2022-07-05T12:12:22;2.30;;;0.90;;
16828;SDS011;8531;48.078;11.968;2022-07-05T12:17:37;2.40;;;0.82;;
16828;SDS011;8531;48.078;11.968;2022-07-05T12:20:05;2.97;;;0.93;;
16828;SDS011;8531;48.078;11.968;2022-07-05T12:22:38;1.48;;;0.90;;
16828;SDS011;8531;48.078;11.968;2022-07-05T12:25:06;3.45;;;1.90;;
16828;SDS011;8531;48.078;11.968;2022-07-05T12:27:36;1.55;;;1.08;;
16828;SDS011;8531;48.078;11.968;2022-07-05T12:30:03;1.70;;;0.77;;
16828;SDS011;8531;48.078;11.968;2022-07-05T12:32:30;1.33;;;0.70;;
16828;SDS011;8531;48.078;11.968;2022-07-05T12:34:57;1.13;;;0.80;;
16828;SDS011;8531;48.078;11.968;2022-07-05T12:37:24;0.98;;;0.70;;
16828;SDS011;8531;48.078;11.968;2022-07-05T12:40:01;1.35;;;0.63;;
16828;SDS011;8531;48.078;11.968;2022-07-05T12:42:32;1.13;;;0.70;;
16828;SDS011;8531;48.078;11.968;2022-07-05T12:45:14;1.15;;;0.68;;
16828;SDS011;8531;48.078;11.968;2022-07-05T12:47:50;1.58;;;0.70;;
16828;SDS011;8531;48.078;11.968;2022-07-05T12:50:24;1.80;;;0.70;;
16828;SDS011;8531;48.078;11.968;2022-07-05T12:52:56;2.05;;;0.82;;
16828;SDS011;8531;48.078;11.968;2022-07-05T12:55:32;1.92;;;1.00;;
16828;SDS011;8531;48.078;11.968;2022-07-05T12:58:18;2.20;;;0.77;;
16828;SDS011;8531;48.078;11.968;2022-07-05T13:00:43;5.30;;;0.90;;
16828;SDS011;8531;48.078;11.968;2022-07-05T13:03:09;2.67;;;0.95;;
16828;SDS011;8531;48.078;11.968;2022-07-05T13:05:35;0.77;;;0.70;;
16828;SDS011;8531;48.078;11.968;2022-07-05T13:08:01;4.05;;;0.90;;
16828;SDS011;8531;48.078;11.968;2022-07-05T13:10:27;1.88;;;0.60;;
16828;SDS011;8531;48.078;11.968;2022-07-05T13:12:56;1.15;;;0.60;;
16828;SDS011;8531;48.078;11.968;2022-07-05T13:15:23;0.80;;;0.70;;
16828;SDS011;8531;48.078;11.968;2022-07-05T13:17:49;0.88;;;0.50;;
16828;SDS011;8531;48.078;11.968;2022-07-05T13:20:15;0.73;;;0.60;;
16828;SDS011;8531;48.078;11.968;2022-07-05T13:22:43;1.67;;;0.70;;
16828;SDS011;8531;48.078;11.968;2022-07-05T13:25:09;4.15;;;1.10;;
16828;SDS011;8531;48.078;11.968;2022-07-05T13:27:37;2.40;;;0.85;;
16828;SDS011;8531;48.078;11.968;2022-07-05T13:30:03;1.65;;;1.15;;
16828;SDS011;8531;48.078;11.968;2022-07-05T13:32:30;2.72;;;0.75;;
16828;SDS011;8531;48.078;11.968;2022-07-05T13:34:56;1.80;;;0.80;;
16828;SDS011;8531;48.078;11.968;2022-07-05T13:37:22;2.65;;;0.80;;
16828;SDS011;8531;48.078;11.968;2022-07-05T13:39:47;3.78;;;0.90;;
16828;SDS011;8531;48.078;11.968;2022-07-05T13:42:13;1.40;;;0.70;;
16828;SDS011;8531;48.078;11.968;2022-07-05T13:44:39;1.52;;;0.80;;
16828;SDS011;8531;48.078;11.968;2022-07-05T13:47:04;2.38;;;0.70;;
16828;SDS011;8531;48.078;11.968;2022-07-05T13:49:30;0.93;;;0.60;;
16828;SDS011;8531;48.078;11.968;2022-07-05T13:51:56;2.63;;;0.65;;
16828;SDS011;8531;48.078;11.968;2022-07-05T13:54:25;0.82;;;0.70;;
16828;SDS011;8531;48.078;11.968;2022-07-05T13:56:50;1.67;;;0.75;;
16828;SDS011;8531;48.078;11.968;2022-07-05T13:59:16;1.20;;;0.73;;
16828;SDS011;8531;48.078;11.968;2022-07-05T14:01:41;1.58;;;0.70;;
16828;SDS011;8531;48.078;11.968;2022-07-05T14:04:07;0.68;;;0.68;;
16828;SDS011;8531;48.078;11.968;2022-07-05T14:06:33;1.15;;;0.60;;
16828;SDS011;8531;48.078;11.968;2022-07-05T14:09:00;0.70;;;0.70;;
16828;SDS011;8531;48.078;11.968;2022-07-05T14:11:26;4.75;;;0.80;;
16828;SDS011;8531;48.078;11.968;2022-07-05T14:13:52;3.20;;;1.10;;
16828;SDS011;8531;48.078;11.968;2022-07-05T14:16:18;1.05;;;0.70;;
16828;SDS011;8531;48.078;11.968;2022-07-05T14:18:44;1.90;;;0.80;;
16828;SDS011;8531;48.078;11.968;2022-07-05T14:21:10;1.08;;;0.70;;
16828;SDS011;8531;48.078;11.968;2022-07-05T14:23:43;1.27;;;0.80;;
16828;SDS011;8531;48.078;11.968;2022-07-05T14:26:11;4.32;;;0.65;;
16828;SDS011;8531;48.078;11.968;2022-07-05T14:28:38;1.55;;;0.70;;
16828;SDS011;8531;48.078;11.968;2022-07-05T14:31:03;0.75;;;0.60;;
16828;SDS011;8531;48.078;11.968;2022-07-05T14:33:29;2.05;;;0.80;;
16828;SDS011;8531;48.078;11.968;2022-07-05T14:35:55;1.30;;;0.80;;
16828;SDS011;8531;48.078;11.968;2022-07-05T14:38:20;7.15;;;0.73;;
16828;SDS011;8531;48.078;11.968;2022-07-05T14:40:46;1.33;;;0.77;;
16828;SDS011;8531;48.078;11.968;2022-07-05T14:43:12;2.13;;;0.93;;
16828;SDS011;8531;48.078;11.968;2022-07-05T14:45:37;2.35;;;1.13;;
16828;SDS011;8531;48.078;11.968;2022-07-05T14:48:03;2.60;;;0.70;;
16828;SDS011;8531;48.078;11.968;2022-07-05T14:50:29;1.50;;;0.60;;
16828;SDS011;8531;48.078;11.968;2022-07-05T14:52:55;2.47;;;0.77;;
16828;SDS011;8531;48.078;11.968;2022-07-05T14:55:20;1.67;;;0.75;;
16828;SDS011;8531;48.078;11.968;2022-07-05T14:57:46;0.65;;;0.57;;
16828;SDS011;8531;48.078;11.968;2022-07-05T15:00:13;0.75;;;0.57;;
16828;SDS011;8531;48.078;11.968;2022-07-05T15:02:39;2.70;;;0.75;;
16828;SDS011;8531;48.078;11.968;2022-07-05T15:05:06;2.00;;;1.17;;
16828;SDS011;8531;48.078;11.968;2022-07-05T15:07:33;4.05;;;0.80;;
16828;SDS011;8531;48.078;11.968;2022-07-05T15:09:58;0.95;;;0.70;;
16828;SDS011;8531;48.078;11.968;2022-07-05T15:12:24;2.03;;;0.98;;
16828;SDS011;8531;48.078;11.968;2022-07-05T15:14:50;1.77;;;0.93;;
16828;SDS011;8531;48.078;11.968;2022-07-05T15:17:15;0.85;;;0.85;;
16828;SDS011;8531;48.078;11.968;2022-07-05T15:19:41;2.33;;;0.90;;
16828;SDS011;8531;48.078;11.968;2022-07-05T15:22:07;0.82;;;0.65;;
16828;SDS011;8531;48.078;11.968;2022-07-05T15:24:33;1.67;;;0.70;;